CEFAS Endeavour — VQHF3 — position and weather

sailwx.info

Track history (hours):
 
Tides and Currents Weather Stations Pressure Air Temp Water Temp Dewpoint Dewpoint Depression Visibility Wind Speed Wind Dir Waves Ship Positions

Oceanographic research ship CEFAS Endeavour (UK)

Detailed information on ship capabilities available from University of Delaware's Ocean Information Center.

Last reported at 2016-Sep-30 17:11 UTC. Time now 2016-Oct-01 15:34 UTC.
Position N 50°37' W 002°22'.

Length 74 m; draft 5.4 m.

Type: Cargo ship. MMSI: 235005270.

Date/timePositionNaut miles runAvg speedWind from/ knotsBaromVisibWave heightAir tempDewpointWater temp
2016-Sep-30 17:11N 50°37' W 002°22'5 5.8
2016-Sep-30 16:23N 50°32' W 002°23'12 6.6
2016-Sep-30 14:33N 50°26' W 002°39'7 7.4
2016-Sep-30 13:33N 50°23' W 002°50'22 7.2
2016-Sep-30 10:33N 50°13' W 003°20'15 7.5
2016-Sep-30 08:33N 50°07' W 003°41'16 7.8
2016-Sep-30 06:33N 50°03' W 004°05'25 8.3
2016-Sep-30 03:33N 49°57' W 004°43'8 8.0
2016-Sep-30 02:30N 49°55' W 004°55'49 8.1
2016-Sep-29 20:24N 50°24' W 005°58'1112.5
2016-Sep-29 19:33N 50°33' W 005°51'14 4.6
2016-Sep-29 16:33N 50°33' W 005°29'4 4.1
2016-Sep-29 15:33N 50°33' W 005°23'6 5.8
2016-Sep-29 14:34N 50°35' W 005°15'5 5.5
2016-Sep-29 13:33N 50°38' W 005°07'32 6.4
2016-Sep-29 08:32N 51°03' W 005°40'117 2.6
2016-Sep-27 10:32N 52°56' W 004°52'68 3.0
2016-Sep-26 11:28N 53°51' W 006°00'19 6.4
2016-Sep-26 08:33N 54°07' W 005°45'  
2016-Sep-23 06:30N 54°04' W 003°50'6 2.9
2016-Sep-23 04:28N 54°04' W 003°60'1112.2
2016-Sep-23 03:34N 54°07' W 004°18'  
Track history (hours):
 
Tides and Currents Weather Stations Pressure Air Temp Water Temp Dewpoint Dewpoint Depression Visibility Wind Speed Wind Dir Waves Ship Positions

Oceanographic research ship CEFAS Endeavour (UK)

Detailed information on ship capabilities available from University of Delaware's Ocean Information Center.

Last reported at 2016-Sep-30 17:11 UTC. Time now 2016-Oct-01 15:34 UTC.
Position N 50°37' W 002°22'.

Length 74 m; draft 5.4 m.

Type: Cargo ship. MMSI: 235005270.

Date/timePositionNaut miles runAvg speedWind from/ knotsBaromVisibWave heightAir tempDewpointWater temp
2016-Sep-30 17:11N 50°37' W 002°22'5 5.8
2016-Sep-30 16:23N 50°32' W 002°23'12 6.6
2016-Sep-30 14:33N 50°26' W 002°39'7 7.4
2016-Sep-30 13:33N 50°23' W 002°50'22 7.2
2016-Sep-30 10:33N 50°13' W 003°20'15 7.5
2016-Sep-30 08:33N 50°07' W 003°41'16 7.8
2016-Sep-30 06:33N 50°03' W 004°05'25 8.3
2016-Sep-30 03:33N 49°57' W 004°43'8 8.0
2016-Sep-30 02:30N 49°55' W 004°55'49 8.1
2016-Sep-29 20:24N 50°24' W 005°58'1112.5
2016-Sep-29 19:33N 50°33' W 005°51'14 4.6
2016-Sep-29 16:33N 50°33' W 005°29'4 4.1
2016-Sep-29 15:33N 50°33' W 005°23'6 5.8
2016-Sep-29 14:34N 50°35' W 005°15'5 5.5
2016-Sep-29 13:33N 50°38' W 005°07'32 6.4
2016-Sep-29 08:32N 51°03' W 005°40'117 2.6
2016-Sep-27 10:32N 52°56' W 004°52'68 3.0
2016-Sep-26 11:28N 53°51' W 006°00'19 6.4
2016-Sep-26 08:33N 54°07' W 005°45'  
2016-Sep-23 06:30N 54°04' W 003°50'6 2.9
2016-Sep-23 04:28N 54°04' W 003°60'1112.2
2016-Sep-23 03:34N 54°07' W 004°18'  

Dump ship's entire track history